Time;durP1;ratioP1;P1;durP2;ratioP2;P2;SDS_P1;SDS_P2;PMS_P1;PMS_P2;Temp;Humidity;BMP_temperature;BMP_pressure;BME280_temperature;BME280_humidity;BME280_pressure;Samples;Min_cycle;Max_cycle;Signal;HPM_P1;HPM_P2
2022/04/14 00:00:20;;;;;;;18.73;3.78;;;;;;;;;;5017900;28;20030;-63
2022/04/14 00:02:46;;;;;;;16.90;4.15;;;;;;;;;;5021993;28;20026;-63
2022/04/14 00:05:12;;;;;;;11.70;3.75;;;;;;;;;;5022594;28;20032;-63
2022/04/14 00:07:39;;;;;;;16.23;3.95;;;;;;;;;;5014410;28;20489;-64
2022/04/14 00:10:05;;;;;;;16.98;4.25;;;;;;;;;;5024061;28;20154;-63
2022/04/14 00:12:31;;;;;;;10.77;3.75;;;;;;;;;;5023263;28;20033;-63
2022/04/14 00:14:58;;;;;;;17.33;3.90;;;;;;;;;;5020429;28;20037;-63
2022/04/14 00:17:24;;;;;;;15.73;3.72;;;;;;;;;;5016808;28;20038;-64
2022/04/14 00:19:50;;;;;;;22.13;4.20;;;;;;;;;;5019655;28;20039;-63
2022/04/14 00:22:16;;;;;;;17.25;4.68;;;;;;;;;;5021580;28;20029;-64
2022/04/14 00:24:42;;;;;;;15.85;4.38;;;;;;;;;;5018012;28;20029;-64
2022/04/14 00:27:07;;;;;;;22.52;4.72;;;;;;;;;;5017575;28;20030;-60
2022/04/14 00:29:34;;;;;;;14.98;3.67;;;;;;;;;;5022363;28;20033;-63
2022/04/14 00:31:59;;;;;;;16.73;4.80;;;;;;;;;;5018053;28;20036;-63
2022/04/14 00:34:25;;;;;;;14.68;4.40;;;;;;;;;;5019690;28;20033;-64
2022/04/14 00:36:51;;;;;;;18.50;4.20;;;;;;;;;;5026373;28;20049;-64
2022/04/14 00:39:16;;;;;;;22.23;4.40;;;;;;;;;;5032093;28;20061;-63
2022/04/14 00:41:42;;;;;;;16.75;4.45;;;;;;;;;;5017565;28;20056;-63
2022/04/14 00:44:08;;;;;;;18.20;4.47;;;;;;;;;;5024808;28;20048;-64
2022/04/14 00:46:34;;;;;;;15.43;4.53;;;;;;;;;;5014651;28;20021;-64
2022/04/14 00:49:00;;;;;;;16.80;4.63;;;;;;;;;;5018585;28;20027;-63
2022/04/14 00:51:26;;;;;;;14.18;4.22;;;;;;;;;;5020794;28;20498;-64
2022/04/14 00:53:52;;;;;;;19.05;4.43;;;;;;;;;;5019073;28;20037;-63
2022/04/14 00:56:18;;;;;;;17.92;4.00;;;;;;;;;;5020453;28;20036;-63
2022/04/14 00:58:44;;;;;;;19.10;4.65;;;;;;;;;;5015169;28;20030;-63
2022/04/14 01:01:10;;;;;;;12.60;4.05;;;;;;;;;;5023985;28;20037;-63
2022/04/14 01:03:36;;;;;;;16.38;4.05;;;;;;;;;;5024776;28;20022;-64
2022/04/14 01:06:04;;;;;;;14.88;3.90;;;;;;;;;;5022651;28;20494;-63
2022/04/14 01:08:32;;;;;;;15.18;4.85;;;;;;;;;;5026449;28;20439;-63
2022/04/14 01:10:59;;;;;;;13.38;4.53;;;;;;;;;;5024776;28;20033;-63
2022/04/14 01:13:25;;;;;;;17.10;4.88;;;;;;;;;;5023939;28;20079;-63
2022/04/14 01:15:58;;;;;;;12.90;4.20;;;;;;;;;;5017682;28;20086;-63
2022/04/14 01:18:24;;;;;;;13.65;4.80;;;;;;;;;;5021479;28;20108;-63
2022/04/14 01:20:50;;;;;;;14.48;3.90;;;;;;;;;;5024126;28;20046;-63
2022/04/14 01:23:20;;;;;;;14.13;4.30;;;;;;;;;;5022836;28;20061;-63
2022/04/14 01:25:46;;;;;;;14.23;4.10;;;;;;;;;;5017713;28;20584;-63
2022/04/14 01:28:12;;;;;;;18.38;5.40;;;;;;;;;;5029277;28;20061;-64
2022/04/14 01:30:38;;;;;;;19.60;4.30;;;;;;;;;;5018986;28;20025;-63
2022/04/14 01:33:04;;;;;;;18.42;4.22;;;;;;;;;;5019688;28;20428;-63
2022/04/14 01:35:30;;;;;;;11.35;3.83;;;;;;;;;;5021751;28;20071;-64
2022/04/14 01:37:55;;;;;;;18.13;4.10;;;;;;;;;;5015170;28;20046;-63
2022/04/14 01:40:21;;;;;;;15.27;4.63;;;;;;;;;;5016433;28;20030;-63
2022/04/14 01:42:47;;;;;;;12.07;4.03;;;;;;;;;;5026524;28;20030;-63
2022/04/14 01:45:13;;;;;;;15.73;4.07;;;;;;;;;;5017112;28;20053;-63
2022/04/14 01:47:42;;;;;;;14.20;3.95;;;;;;;;;;5016660;28;20025;-63
2022/04/14 01:50:13;;;;;;;14.65;4.20;;;;;;;;;;5024566;28;20041;-63
2022/04/14 01:52:41;;;;;;;13.52;3.95;;;;;;;;;;5018043;28;20056;-63
2022/04/14 01:55:08;;;;;;;16.23;4.43;;;;;;;;;;5017135;28;20482;-63
2022/04/14 01:57:33;;;;;;;16.38;4.13;;;;;;;;;;5024198;28;20124;-63
2022/04/14 02:00:00;;;;;;;12.02;3.85;;;;;;;;;;5019738;28;20113;-63
2022/04/14 02:02:26;;;;;;;10.82;3.40;;;;;;;;;;5017331;28;20021;-63
2022/04/14 02:04:52;;;;;;;15.18;3.42;;;;;;;;;;5021897;28;20030;-64
2022/04/14 02:07:19;;;;;;;12.65;3.50;;;;;;;;;;5012935;28;20078;-63
2022/04/14 02:09:44;;;;;;;10.80;3.60;;;;;;;;;;5016055;28;20846;-64
2022/04/14 02:12:11;;;;;;;14.32;4.28;;;;;;;;;;5025588;28;20546;-63
2022/04/14 02:14:38;;;;;;;15.27;3.95;;;;;;;;;;5025624;28;20029;-63
2022/04/14 02:17:04;;;;;;;8.73;3.97;;;;;;;;;;5024582;28;20033;-63
2022/04/14 02:19:30;;;;;;;13.60;3.60;;;;;;;;;;5011881;28;20030;-63
2022/04/14 02:21:58;;;;;;;16.85;4.53;;;;;;;;;;5017823;28;20506;-64
2022/04/14 02:24:25;;;;;;;13.95;4.22;;;;;;;;;;5017357;28;20018;-63
2022/04/14 02:26:51;;;;;;;12.90;5.05;;;;;;;;;;5015582;28;20033;-64
2022/04/14 02:29:17;;;;;;;10.52;4.07;;;;;;;;;;5017650;28;20153;-63
2022/04/14 02:31:43;;;;;;;11.05;3.90;;;;;;;;;;5024280;28;20041;-63
2022/04/14 02:34:09;;;;;;;14.23;3.70;;;;;;;;;;5010650;28;20553;-63
2022/04/14 02:36:34;;;;;;;10.35;3.95;;;;;;;;;;5024408;28;20037;-62
2022/04/14 02:39:00;;;;;;;12.15;3.88;;;;;;;;;;5022160;28;20038;-62
2022/04/14 02:41:26;;;;;;;17.65;4.18;;;;;;;;;;5022046;28;20025;-63
2022/04/14 02:43:51;;;;;;;10.80;3.92;;;;;;;;;;5017479;28;20399;-62
2022/04/14 02:46:17;;;;;;;15.52;4.40;;;;;;;;;;5014116;28;20036;-63
2022/04/14 02:48:43;;;;;;;8.30;3.35;;;;;;;;;;5023499;28;20033;-63
2022/04/14 02:51:09;;;;;;;7.95;3.50;;;;;;;;;;5023311;28;20479;-63
2022/04/14 02:53:34;;;;;;;10.93;3.20;;;;;;;;;;5020276;28;20102;-63
2022/04/14 02:56:00;;;;;;;12.07;3.25;;;;;;;;;;5020009;28;20041;-63
2022/04/14 02:58:26;;;;;;;14.20;3.05;;;;;;;;;;5022911;28;20725;-63
2022/04/14 03:00:52;;;;;;;9.15;2.97;;;;;;;;;;5020385;28;20044;-63
2022/04/14 03:03:19;;;;;;;7.53;2.83;;;;;;;;;;5022219;28;20510;-63
2022/04/14 03:05:45;;;;;;;9.23;3.33;;;;;;;;;;5017396;28;20065;-63
2022/04/14 03:08:11;;;;;;;11.48;2.80;;;;;;;;;;5016660;28;20124;-63
2022/04/14 03:10:36;;;;;;;8.80;3.20;;;;;;;;;;5012642;28;20041;-63
2022/04/14 03:13:02;;;;;;;8.32;2.60;;;;;;;;;;5016037;28;20595;-63
2022/04/14 03:15:28;;;;;;;5.55;2.40;;;;;;;;;;5030868;28;20036;-63
2022/04/14 03:17:54;;;;;;;4.45;2.45;;;;;;;;;;5019518;28;20029;-62
2022/04/14 03:20:20;;;;;;;5.85;2.63;;;;;;;;;;5021659;28;20034;-63
2022/04/14 03:22:45;;;;;;;4.55;2.28;;;;;;;;;;5018162;28;20037;-63
2022/04/14 03:25:13;;;;;;;6.63;2.70;;;;;;;;;;5015659;28;20036;-63
2022/04/14 03:27:39;;;;;;;8.68;2.60;;;;;;;;;;5024309;28;20047;-63
2022/04/14 03:30:10;;;;;;;12.02;3.28;;;;;;;;;;5025011;28;20482;-63
2022/04/14 03:32:44;;;;;;;7.53;2.50;;;;;;;;;;5024232;28;20040;-63
2022/04/14 03:35:11;;;;;;;6.65;2.67;;;;;;;;;;5021665;28;20619;-62
2022/04/14 03:37:38;;;;;;;3.83;2.60;;;;;;;;;;5020571;28;20400;-63
2022/04/14 03:40:04;;;;;;;4.20;2.25;;;;;;;;;;5026764;28;20517;-63
2022/04/14 03:42:30;;;;;;;8.02;2.90;;;;;;;;;;5031484;28;20029;-62
2022/04/14 03:44:57;;;;;;;5.93;2.53;;;;;;;;;;5033798;28;20099;-63
2022/04/14 03:47:23;;;;;;;8.35;2.33;;;;;;;;;;5026761;28;20025;-63
2022/04/14 03:49:49;;;;;;;5.53;2.25;;;;;;;;;;5027348;28;20043;-63
2022/04/14 03:52:15;;;;;;;4.22;2.40;;;;;;;;;;5020969;28;20026;-63
2022/04/14 03:54:41;;;;;;;10.45;2.38;;;;;;;;;;5030387;28;20030;-62
2022/04/14 03:57:07;;;;;;;6.93;2.40;;;;;;;;;;5022892;28;20529;-63
2022/04/14 03:59:32;;;;;;;6.63;2.42;;;;;;;;;;5022324;28;20737;-62
2022/04/14 04:01:58;;;;;;;7.15;2.65;;;;;;;;;;5027447;28;20548;-63
2022/04/14 04:04:24;;;;;;;8.60;2.42;;;;;;;;;;5015695;28;20432;-63
2022/04/14 04:06:49;;;;;;;7.38;2.40;;;;;;;;;;5016390;28;20033;-63
2022/04/14 04:09:15;;;;;;;6.38;2.50;;;;;;;;;;5014324;28;20038;-63
2022/04/14 04:11:41;;;;;;;5.57;2.30;;;;;;;;;;5013107;28;20037;-63
2022/04/14 04:14:07;;;;;;;5.20;2.20;;;;;;;;;;5020058;28;20429;-63
2022/04/14 04:16:33;;;;;;;6.90;2.45;;;;;;;;;;5020018;28;20033;-63
2022/04/14 04:18:58;;;;;;;7.00;2.28;;;;;;;;;;5017976;28;20038;-63
2022/04/14 04:21:26;;;;;;;4.57;2.05;;;;;;;;;;5024249;28;20378;-63
2022/04/14 04:23:53;;;;;;;10.10;3.28;;;;;;;;;;5028977;28;20045;-63
2022/04/14 04:26:18;;;;;;;5.10;2.30;;;;;;;;;;5022384;28;20053;-63
2022/04/14 04:28:44;;;;;;;8.13;2.60;;;;;;;;;;5025013;28;20171;-63
2022/04/14 04:31:10;;;;;;;11.18;2.63;;;;;;;;;;5021379;28;20112;-62
2022/04/14 04:33:36;;;;;;;4.60;2.20;;;;;;;;;;5022008;28;20537;-63
2022/04/14 04:36:02;;;;;;;6.00;2.22;;;;;;;;;;5027204;28;20038;-63
2022/04/14 04:38:28;;;;;;;8.77;2.58;;;;;;;;;;5025324;28;20021;-63
2022/04/14 04:40:55;;;;;;;3.75;2.15;;;;;;;;;;5020006;28;20398;-63
2022/04/14 04:43:20;;;;;;;4.07;2.00;;;;;;;;;;5022896;28;20029;-63
2022/04/14 04:45:46;;;;;;;5.45;2.30;;;;;;;;;;5020284;28;20025;-63
2022/04/14 04:48:12;;;;;;;3.83;2.15;;;;;;;;;;5016416;28;20026;-62
2022/04/14 04:50:38;;;;;;;9.00;2.53;;;;;;;;;;5018571;28;20026;-63
2022/04/14 04:53:04;;;;;;;5.38;2.58;;;;;;;;;;5023782;28;20596;-62
2022/04/14 04:55:30;;;;;;;4.30;2.20;;;;;;;;;;5013649;28;20426;-63
2022/04/14 04:57:56;;;;;;;6.47;2.20;;;;;;;;;;5012641;28;20025;-63
2022/04/14 05:00:22;;;;;;;4.40;2.28;;;;;;;;;;5029114;28;20034;-63
2022/04/14 05:02:48;;;;;;;5.32;1.80;;;;;;;;;;5022213;28;20033;-63
2022/04/14 05:05:14;;;;;;;4.95;2.00;;;;;;;;;;5024114;28;20039;-63
2022/04/14 05:07:39;;;;;;;6.32;2.13;;;;;;;;;;5025211;28;20021;-63
2022/04/14 05:10:06;;;;;;;4.65;2.75;;;;;;;;;;5012860;28;20033;-63
2022/04/14 05:12:31;;;;;;;7.80;2.40;;;;;;;;;;5019926;28;20490;-62
2022/04/14 05:14:57;;;;;;;9.95;2.55;;;;;;;;;;5027050;28;20033;-63
2022/04/14 05:17:23;;;;;;;12.00;2.85;;;;;;;;;;5024447;28;20428;-63
2022/04/14 05:19:48;;;;;;;19.88;3.30;;;;;;;;;;5018973;28;20088;-61
2022/04/14 05:22:14;;;;;;;6.50;3.22;;;;;;;;;;5020171;28;20025;-63
2022/04/14 05:24:40;;;;;;;8.38;3.00;;;;;;;;;;5028271;28;20040;-63
2022/04/14 05:27:06;;;;;;;9.18;3.22;;;;;;;;;;5014901;28;20088;-63
2022/04/14 05:29:31;;;;;;;8.25;3.13;;;;;;;;;;5029370;28;20024;-63
2022/04/14 05:31:57;;;;;;;9.02;3.63;;;;;;;;;;5015931;28;20026;-63
2022/04/14 05:34:23;;;;;;;6.78;2.97;;;;;;;;;;5016475;28;20026;-63
2022/04/14 05:36:49;;;;;;;7.38;3.28;;;;;;;;;;5021970;28;20037;-63
2022/04/14 05:39:15;;;;;;;12.15;3.05;;;;;;;;;;5025415;28;20147;-63
2022/04/14 05:41:41;;;;;;;8.98;2.80;;;;;;;;;;5027974;28;20029;-63
2022/04/14 05:44:07;;;;;;;14.23;3.45;;;;;;;;;;5026625;28;20141;-63
2022/04/14 05:46:33;;;;;;;10.77;3.50;;;;;;;;;;5015225;28;20112;-63
2022/04/14 05:48:58;;;;;;;5.90;2.80;;;;;;;;;;5018250;28;20036;-63
2022/04/14 05:51:24;;;;;;;7.53;2.72;;;;;;;;;;5025572;28;20044;-63
2022/04/14 05:53:51;;;;;;;12.23;3.67;;;;;;;;;;5020606;28;20033;-63
2022/04/14 05:56:17;;;;;;;6.05;3.15;;;;;;;;;;5017648;28;20132;-63
2022/04/14 05:58:46;;;;;;;9.35;3.08;;;;;;;;;;5018003;28;20537;-63
2022/04/14 06:01:12;;;;;;;16.50;3.00;;;;;;;;;;5022415;28;20037;-63
2022/04/14 06:03:38;;;;;;;13.70;3.20;;;;;;;;;;5014178;28;20081;-63
2022/04/14 06:06:05;;;;;;;11.88;3.15;;;;;;;;;;5029289;28;20434;-63
2022/04/14 06:08:30;;;;;;;11.73;3.25;;;;;;;;;;5025114;28;20014;-63
2022/04/14 06:10:57;;;;;;;8.80;2.97;;;;;;;;;;5016729;28;20052;-63
2022/04/14 06:13:22;;;;;;;10.73;3.28;;;;;;;;;;5016426;28;20057;-63
2022/04/14 06:15:48;;;;;;;7.43;3.40;;;;;;;;;;5023077;28;20059;-63
2022/04/14 06:18:14;;;;;;;13.90;6.97;;;;;;;;;;5020425;28;20029;-63
2022/04/14 06:20:40;;;;;;;20.35;6.95;;;;;;;;;;5020091;28;20534;-63
2022/04/14 06:23:05;;;;;;;14.75;7.38;;;;;;;;;;5021557;28;20026;-62
2022/04/14 06:25:31;;;;;;;29.27;10.85;;;;;;;;;;5016383;28;20033;-63
2022/04/14 06:27:57;;;;;;;21.73;11.13;;;;;;;;;;5016025;28;20029;-63
2022/04/14 06:30:23;;;;;;;27.80;11.93;;;;;;;;;;5020447;28;20744;-63
2022/04/14 06:32:56;;;;;;;23.80;11.20;;;;;;;;;;5016761;28;20046;-63
2022/04/14 06:35:21;;;;;;;18.67;6.63;;;;;;;;;;5015622;28;20033;-63
2022/04/14 06:37:47;;;;;;;16.02;5.43;;;;;;;;;;5015058;28;20040;-63
2022/04/14 06:40:13;;;;;;;17.35;5.38;;;;;;;;;;5017108;28;20398;-63
2022/04/14 06:42:38;;;;;;;8.10;3.70;;;;;;;;;;5012991;28;20064;-63
2022/04/14 06:45:05;;;;;;;9.18;2.80;;;;;;;;;;5016759;28;20044;-63
2022/04/14 06:47:30;;;;;;;5.18;2.10;;;;;;;;;;5018416;28;20037;-63
2022/04/14 06:49:56;;;;;;;5.38;2.28;;;;;;;;;;5017630;28;20030;-63
2022/04/14 06:52:22;;;;;;;6.18;2.55;;;;;;;;;;5023345;28;20105;-63
2022/04/14 06:54:48;;;;;;;6.78;3.10;;;;;;;;;;5019512;28;20061;-63
2022/04/14 06:57:14;;;;;;;7.93;4.22;;;;;;;;;;5019265;28;20064;-63
2022/04/14 06:59:40;;;;;;;11.85;7.22;;;;;;;;;;5020109;28;20115;-63
2022/04/14 07:02:07;;;;;;;23.90;10.65;;;;;;;;;;5020251;28;20087;-63
2022/04/14 07:04:33;;;;;;;29.25;12.35;;;;;;;;;;5019744;28;20033;-63
2022/04/14 07:06:59;;;;;;;12.52;5.90;;;;;;;;;;5016261;28;20098;-64
2022/04/14 07:09:25;;;;;;;12.13;4.25;;;;;;;;;;5019720;28;20643;-63
2022/04/14 07:11:51;;;;;;;11.60;3.33;;;;;;;;;;5022646;28;20026;-62
2022/04/14 07:14:18;;;;;;;9.38;3.72;;;;;;;;;;5019978;28;20037;-64
2022/04/14 07:16:44;;;;;;;5.82;2.60;;;;;;;;;;5016855;28;20040;-63
2022/04/14 07:19:10;;;;;;;13.43;4.57;;;;;;;;;;5018586;28;20033;-63
2022/04/14 07:21:35;;;;;;;10.63;3.85;;;;;;;;;;5024094;28;20474;-63
2022/04/14 07:24:01;;;;;;;10.30;2.88;;;;;;;;;;5017685;28;20364;-63
2022/04/14 07:26:27;;;;;;;3.80;2.15;;;;;;;;;;5018381;28;20030;-63
2022/04/14 07:28:52;;;;;;;6.13;2.40;;;;;;;;;;5017564;28;20056;-63
2022/04/14 07:31:18;;;;;;;5.95;2.38;;;;;;;;;;5019893;28;20504;-63
2022/04/14 07:33:44;;;;;;;3.80;2.25;;;;;;;;;;5021535;28;20454;-63
2022/04/14 07:36:09;;;;;;;13.63;2.40;;;;;;;;;;5021616;28;20395;-63
2022/04/14 07:38:35;;;;;;;6.43;2.47;;;;;;;;;;5018466;28;20080;-63
2022/04/14 07:41:05;;;;;;;5.47;2.78;;;;;;;;;;5012794;28;20034;-63
2022/04/14 07:43:32;;;;;;;5.38;2.35;;;;;;;;;;5023675;28;20042;-63
2022/04/14 07:45:58;;;;;;;4.47;2.08;;;;;;;;;;5023114;28;20599;-63
2022/04/14 07:48:23;;;;;;;6.72;2.40;;;;;;;;;;5024426;28;20124;-63
2022/04/14 07:50:49;;;;;;;9.98;2.42;;;;;;;;;;5023433;28;20034;-63
2022/04/14 07:53:15;;;;;;;6.35;2.35;;;;;;;;;;5020297;28;20075;-63
2022/04/14 07:55:41;;;;;;;9.73;3.15;;;;;;;;;;5026272;28;20595;-63
2022/04/14 07:58:07;;;;;;;9.18;2.60;;;;;;;;;;5017496;28;20045;-63
2022/04/14 08:00:34;;;;;;;9.45;2.63;;;;;;;;;;5021860;28;20029;-63
2022/04/14 08:03:02;;;;;;;8.70;2.85;;;;;;;;;;5019295;28;20034;-63
2022/04/14 08:05:36;;;;;;;19.85;3.75;;;;;;;;;;5021044;28;20037;-63
2022/04/14 08:08:08;;;;;;;22.30;5.28;;;;;;;;;;5025191;28;20399;-63
2022/04/14 08:10:34;;;;;;;21.77;5.32;;;;;;;;;;5018491;28;20026;-63
2022/04/14 08:13:00;;;;;;;21.83;5.18;;;;;;;;;;5018500;28;20030;-63
2022/04/14 08:15:27;;;;;;;25.02;6.28;;;;;;;;;;5019645;28;20036;-63
2022/04/14 08:17:53;;;;;;;28.17;6.05;;;;;;;;;;5023289;28;20068;-63
2022/04/14 08:20:19;;;;;;;22.83;5.82;;;;;;;;;;5017312;28;20478;-63
2022/04/14 08:22:47;;;;;;;21.75;6.03;;;;;;;;;;5015153;28;20070;-63
2022/04/14 08:25:15;;;;;;;18.02;6.03;;;;;;;;;;5014965;28;20037;-63
2022/04/14 08:27:41;;;;;;;16.42;6.00;;;;;;;;;;5012895;28;20128;-63
2022/04/14 08:30:07;;;;;;;19.08;6.05;;;;;;;;;;5026016;28;20171;-63
2022/04/14 08:32:34;;;;;;;20.67;6.07;;;;;;;;;;5020332;28;20035;-63
2022/04/14 08:35:02;;;;;;;17.25;6.45;;;;;;;;;;5018489;28;20047;-63
2022/04/14 08:37:28;;;;;;;23.75;6.75;;;;;;;;;;5019837;28;20037;-63
2022/04/14 08:39:54;;;;;;;13.07;5.35;;;;;;;;;;5017509;28;20028;-63
2022/04/14 08:42:26;;;;;;;24.70;7.40;;;;;;;;;;5017131;28;20061;-63
2022/04/14 08:45:00;;;;;;;25.25;5.75;;;;;;;;;;5021793;28;20076;-63
2022/04/14 08:47:29;;;;;;;14.43;5.43;;;;;;;;;;5020183;28;20684;-63
2022/04/14 08:49:56;;;;;;;18.48;5.75;;;;;;;;;;5014502;28;20034;-63
2022/04/14 08:52:22;;;;;;;23.02;6.05;;;;;;;;;;5017532;28;20061;-63
2022/04/14 08:54:55;;;;;;;13.27;5.20;;;;;;;;;;5013988;28;20382;-63
2022/04/14 08:57:24;;;;;;;16.65;6.35;;;;;;;;;;5017673;28;20076;-64
2022/04/14 08:59:50;;;;;;;30.45;6.53;;;;;;;;;;5019510;28;20026;-63
2022/04/14 09:02:18;;;;;;;20.10;6.07;;;;;;;;;;5021408;28;20028;-63
2022/04/14 09:04:44;;;;;;;13.23;6.10;;;;;;;;;;5017610;28;20013;-63
2022/04/14 09:07:11;;;;;;;16.88;5.85;;;;;;;;;;5016882;28;20026;-63
2022/04/14 09:09:38;;;;;;;14.10;5.93;;;;;;;;;;5022176;28;20029;-63
2022/04/14 09:12:05;;;;;;;23.20;5.43;;;;;;;;;;5014549;28;20120;-64
2022/04/14 09:14:34;;;;;;;13.10;5.43;;;;;;;;;;5016885;28;20034;-63
2022/04/14 09:17:07;;;;;;;12.93;5.32;;;;;;;;;;5018324;28;20038;-63
2022/04/14 09:19:34;;;;;;;11.75;4.78;;;;;;;;;;5020454;28;20026;-64
2022/04/14 09:22:07;;;;;;;15.82;5.07;;;;;;;;;;5017093;28;20108;-64
2022/04/14 09:24:44;;;;;;;11.13;4.53;;;;;;;;;;5020745;28;20037;-63
2022/04/14 09:27:31;;;;;;;18.85;4.97;;;;;;;;;;5015188;28;20121;-62
2022/04/14 09:29:59;;;;;;;10.20;4.45;;;;;;;;;;5019018;28;20072;-64
2022/04/14 09:32:43;;;;;;;14.60;5.13;;;;;;;;;;5021120;28;20033;-63
2022/04/14 09:35:17;;;;;;;17.08;4.65;;;;;;;;;;5023611;28;20037;-61
2022/04/14 09:37:42;;;;;;;16.55;3.78;;;;;;;;;;5012595;28;20053;-64
2022/04/14 09:40:09;;;;;;;15.10;4.00;;;;;;;;;;5015252;28;20486;-63
2022/04/14 09:42:50;;;;;;;6.68;3.22;;;;;;;;;;5017103;28;20072;-63
2022/04/14 09:45:19;;;;;;;10.53;3.00;;;;;;;;;;5014599;28;20371;-63
2022/04/14 09:47:45;;;;;;;14.00;3.03;;;;;;;;;;5020170;28;20079;-63
2022/04/14 09:50:34;;;;;;;9.23;3.20;;;;;;;;;;5018081;28;20501;-63
2022/04/14 09:53:05;;;;;;;8.18;2.97;;;;;;;;;;5014658;28;20064;-63
2022/04/14 09:55:32;;;;;;;14.00;2.97;;;;;;;;;;5014038;28;20038;-64
2022/04/14 09:58:09;;;;;;;13.20;2.78;;;;;;;;;;5016207;28;20466;-63
2022/04/14 10:00:36;;;;;;;11.50;2.50;;;;;;;;;;5013535;28;20477;-64
2022/04/14 10:03:10;;;;;;;7.40;2.90;;;;;;;;;;5014752;28;20033;-64
2022/04/14 10:05:36;;;;;;;9.60;2.67;;;;;;;;;;5016602;28;20034;-64
2022/04/14 10:08:01;;;;;;;8.13;3.33;;;;;;;;;;5015329;28;20068;-64
2022/04/14 10:10:27;;;;;;;21.90;3.17;;;;;;;;;;5014161;28;20025;-62
2022/04/14 10:13:05;;;;;;;9.80;3.00;;;;;;;;;;5012692;28;20122;-64
2022/04/14 10:15:33;;;;;;;9.82;2.38;;;;;;;;;;5010662;28;20029;-64
2022/04/14 10:18:04;;;;;;;13.05;2.80;;;;;;;;;;5015958;28;20030;-64
2022/04/14 10:20:30;;;;;;;12.98;2.67;;;;;;;;;;5017157;28;20040;-63
2022/04/14 10:22:59;;;;;;;19.77;2.90;;;;;;;;;;5014432;28;20038;-64
2022/04/14 10:25:25;;;;;;;9.50;2.60;;;;;;;;;;5017843;28;20029;-64
2022/04/14 10:27:58;;;;;;;8.48;3.05;;;;;;;;;;5018406;28;20042;-63
2022/04/14 10:30:24;;;;;;;8.55;2.67;;;;;;;;;;5022015;28;20033;-64
2022/04/14 10:32:53;;;;;;;15.93;3.45;;;;;;;;;;5019118;28;20487;-64
2022/04/14 10:35:19;;;;;;;6.18;3.22;;;;;;;;;;5021098;28;20394;-64
2022/04/14 10:37:49;;;;;;;9.57;3.35;;;;;;;;;;5017807;28;20033;-64
2022/04/14 10:40:15;;;;;;;10.90;3.85;;;;;;;;;;5027120;28;20105;-64
2022/04/14 10:42:52;;;;;;;18.10;3.22;;;;;;;;;;5027543;28;20053;-64
2022/04/14 10:45:22;;;;;;;15.77;3.33;;;;;;;;;;5020805;28;20045;-64
2022/04/14 10:47:50;;;;;;;9.13;3.55;;;;;;;;;;5020694;28;20026;-64
2022/04/14 10:50:23;;;;;;;14.07;3.30;;;;;;;;;;5025088;28;20026;-64
2022/04/14 10:53:09;;;;;;;13.85;3.13;;;;;;;;;;5024935;28;20026;-64
2022/04/14 10:55:44;;;;;;;22.33;3.65;;;;;;;;;;5026397;28;20144;-64
2022/04/14 10:58:28;;;;;;;14.75;3.25;;;;;;;;;;5022404;28;20033;-64
2022/04/14 11:00:56;;;;;;;12.30;4.22;;;;;;;;;;5024694;28;20045;-64
2022/04/14 11:03:47;;;;;;;10.38;3.10;;;;;;;;;;5024943;28;20029;-64
2022/04/14 11:06:41;;;;;;;12.68;3.20;;;;;;;;;;5021561;28;20486;-64
2022/04/14 11:09:08;;;;;;;15.98;3.33;;;;;;;;;;5024464;28;20049;-64
2022/04/14 11:11:59;;;;;;;12.05;3.60;;;;;;;;;;5024750;28;20489;-64
2022/04/14 11:14:25;;;;;;;16.05;3.83;;;;;;;;;;5026138;28;20029;-64
2022/04/14 11:16:52;;;;;;;15.95;4.32;;;;;;;;;;5020588;28;20048;-64
2022/04/14 11:19:18;;;;;;;14.98;4.13;;;;;;;;;;5022074;28;20498;-64
2022/04/14 11:22:05;;;;;;;9.23;2.85;;;;;;;;;;5028293;28;20033;-64
2022/04/14 11:24:36;;;;;;;13.43;3.45;;;;;;;;;;5023820;28;20038;-63
2022/04/14 11:27:21;;;;;;;15.13;3.50;;;;;;;;;;5027457;28;20033;-63
2022/04/14 11:29:49;;;;;;;14.02;3.85;;;;;;;;;;5017233;28;20038;-64
2022/04/14 11:32:33;;;;;;;18.35;3.50;;;;;;;;;;5020239;28;20049;-64
2022/04/14 11:35:09;;;;;;;10.38;3.33;;;;;;;;;;5022250;28;20040;-62
2022/04/14 11:37:39;;;;;;;9.93;3.30;;;;;;;;;;5023333;28;20048;-62
2022/04/14 11:40:22;;;;;;;11.70;2.97;;;;;;;;;;5014051;28;20026;-61
2022/04/14 11:42:53;;;;;;;15.70;3.80;;;;;;;;;;5017159;28;20034;-61
2022/04/14 11:45:28;;;;;;;16.73;4.78;;;;;;;;;;5023538;28;20033;-61
2022/04/14 11:47:55;;;;;;;10.40;3.30;;;;;;;;;;5017443;28;20035;-61
2022/04/14 11:50:25;;;;;;;11.43;3.42;;;;;;;;;;5018951;28;20018;-62
2022/04/14 11:53:03;;;;;;;10.82;3.33;;;;;;;;;;5015462;28;20062;-62
2022/04/14 11:55:42;;;;;;;6.63;2.20;;;;;;;;;;5016275;28;20139;-61
2022/04/14 11:58:10;;;;;;;10.25;2.63;;;;;;;;;;5015270;28;20037;-62
2022/04/14 12:00:49;;;;;;;5.25;2.50;;;;;;;;;;5021408;28;20386;-62
2022/04/14 12:03:28;;;;;;;5.22;2.30;;;;;;;;;;5018551;28;20032;-62
2022/04/14 12:05:54;;;;;;;5.20;2.20;;;;;;;;;;5020393;28;20034;-62
2022/04/14 12:08:20;;;;;;;4.90;2.42;;;;;;;;;;5022947;28;20410;-62
2022/04/14 12:10:46;;;;;;;8.48;2.42;;;;;;;;;;5013972;28;20145;-62
2022/04/14 12:13:12;;;;;;;9.73;2.40;;;;;;;;;;5018352;28;20116;-61
2022/04/14 12:15:38;;;;;;;8.43;2.33;;;;;;;;;;5016360;28;20038;-62
2022/04/14 12:18:13;;;;;;;5.75;2.80;;;;;;;;;;5017731;28;20040;-62
2022/04/14 12:20:43;;;;;;;16.60;3.63;;;;;;;;;;5018955;28;20052;-62
2022/04/14 12:23:11;;;;;;;9.10;2.70;;;;;;;;;;5017327;28;20080;-62
2022/04/14 12:25:38;;;;;;;6.80;2.38;;;;;;;;;;5018117;28;20104;-62
2022/04/14 12:28:05;;;;;;;7.70;2.72;;;;;;;;;;5017616;28;20034;-62
2022/04/14 12:30:31;;;;;;;6.50;2.55;;;;;;;;;;5025240;28;20152;-61
2022/04/14 12:33:04;;;;;;;6.20;2.25;;;;;;;;;;5020600;28;20109;-62
2022/04/14 12:35:36;;;;;;;4.25;2.80;;;;;;;;;;5018845;28;20025;-62
2022/04/14 12:38:11;;;;;;;;;;;;;;;;;;5017726;28;20555;-62
2022/04/14 12:40:37;;;;;;;5.38;2.17;;;;;;;;;;5017812;28;19956;-62
2022/04/14 12:43:06;;;;;;;7.72;2.50;;;;;;;;;;5016891;28;20096;-62
2022/04/14 12:45:38;;;;;;;2.78;2.00;;;;;;;;;;5020499;28;20030;-61
2022/04/14 12:48:08;;;;;;;7.53;2.40;;;;;;;;;;5014568;28;20034;-61
2022/04/14 12:50:34;;;;;;;4.50;2.25;;;;;;;;;;5020863;28;20026;-65
2022/04/14 12:52:59;;;;;;;2.65;2.10;;;;;;;;;;5016749;28;20033;-61
2022/04/14 12:55:28;;;;;;;3.30;2.40;;;;;;;;;;5014391;28;20382;-62
2022/04/14 12:58:10;;;;;;;5.55;2.45;;;;;;;;;;5020917;28;20040;-62
2022/04/14 13:00:36;;;;;;;3.00;1.70;;;;;;;;;;5020248;28;20479;-62
2022/04/14 13:03:05;;;;;;;4.75;2.35;;;;;;;;;;5017367;28;20049;-62
2022/04/14 13:05:37;;;;;;;7.40;2.08;;;;;;;;;;5021115;28;20030;-62
2022/04/14 13:08:03;;;;;;;4.25;2.00;;;;;;;;;;5012809;28;20026;-61
2022/04/14 13:10:34;;;;;;;5.13;1.98;;;;;;;;;;5015050;28;20029;-62
2022/04/14 13:13:02;;;;;;;5.50;2.28;;;;;;;;;;5014986;28;20022;-61
2022/04/14 13:15:28;;;;;;;6.18;2.22;;;;;;;;;;5026192;28;20120;-62
2022/04/14 13:17:55;;;;;;;14.18;2.22;;;;;;;;;;5013341;28;20026;-62
2022/04/14 13:20:30;;;;;;;4.63;2.20;;;;;;;;;;5014503;28;20025;-62
2022/04/14 13:22:56;;;;;;;5.85;2.50;;;;;;;;;;5015626;28;21333;-61
2022/04/14 13:25:25;;;;;;;5.90;2.10;;;;;;;;;;5015991;28;20104;-61
2022/04/14 13:27:51;;;;;;;7.50;2.25;;;;;;;;;;5017703;28;20026;-61
2022/04/14 13:30:17;;;;;;;6.72;2.60;;;;;;;;;;5020505;28;20495;-62
2022/04/14 13:32:43;;;;;;;4.85;2.10;;;;;;;;;;5018252;28;20061;-62
2022/04/14 13:35:09;;;;;;;7.18;2.47;;;;;;;;;;5013953;28;20033;-62
2022/04/14 13:37:35;;;;;;;4.72;2.08;;;;;;;;;;5017944;28;20044;-62
2022/04/14 13:40:04;;;;;;;7.72;2.13;;;;;;;;;;5024472;28;20030;-62
2022/04/14 13:42:31;;;;;;;7.25;2.58;;;;;;;;;;5019439;28;20040;-61
2022/04/14 13:44:58;;;;;;;6.68;2.80;;;;;;;;;;5016253;28;20505;-62
2022/04/14 13:47:23;;;;;;;11.07;3.20;;;;;;;;;;5011879;28;20037;-62
2022/04/14 13:49:49;;;;;;;10.55;3.55;;;;;;;;;;5012548;28;20025;-62
2022/04/14 13:52:16;;;;;;;15.50;3.97;;;;;;;;;;5021901;28;20171;-62
2022/04/14 13:54:42;;;;;;;12.50;3.47;;;;;;;;;;5014744;28;20026;-62
2022/04/14 13:57:08;;;;;;;14.77;3.72;;;;;;;;;;5016721;28;20037;-62
2022/04/14 13:59:34;;;;;;;11.65;3.50;;;;;;;;;;5011492;28;20441;-62
2022/04/14 14:02:03;;;;;;;18.77;4.13;;;;;;;;;;5018601;28;20044;-62
2022/04/14 14:04:29;;;;;;;8.35;3.17;;;;;;;;;;5020629;28;20053;-62
2022/04/14 14:06:55;;;;;;;9.38;3.53;;;;;;;;;;5021396;28;20068;-61
2022/04/14 14:09:20;;;;;;;16.27;3.40;;;;;;;;;;5022187;28;20160;-62
2022/04/14 14:11:46;;;;;;;11.98;3.53;;;;;;;;;;5020001;28;20040;-62
2022/04/14 14:14:12;;;;;;;18.92;4.13;;;;;;;;;;5014155;28;20037;-62
2022/04/14 14:16:38;;;;;;;10.45;3.05;;;;;;;;;;5011711;28;20033;-61
2022/04/14 14:19:04;;;;;;;11.57;3.10;;;;;;;;;;5014134;28;22007;-64
2022/04/14 14:21:29;;;;;;;7.45;2.88;;;;;;;;;;5015275;28;20029;-61
2022/04/14 14:23:55;;;;;;;14.45;3.22;;;;;;;;;;5015924;28;20468;-61
2022/04/14 14:26:21;;;;;;;13.40;3.15;;;;;;;;;;5018340;28;20401;-62
2022/04/14 14:28:46;;;;;;;7.15;2.70;;;;;;;;;;5016173;28;20025;-62
2022/04/14 14:31:15;;;;;;;10.77;3.00;;;;;;;;;;5015107;28;20037;-62
2022/04/14 14:33:41;;;;;;;9.93;3.45;;;;;;;;;;5013042;28;20069;-62
2022/04/14 14:36:07;;;;;;;12.70;3.30;;;;;;;;;;5015224;28;20030;-64
2022/04/14 14:38:32;;;;;;;16.90;3.88;;;;;;;;;;5014631;28;20034;-64